sensor_id;sensor_type;location;lat;lon;timestamp;P1;durP1;ratioP1;P2;durP2;ratioP2
83929;SDS011;73959;52.130;5.584;2024-01-25T00:00:19;36.97;;;6.30;;
83929;SDS011;73959;52.130;5.584;2024-01-25T00:02:45;26.83;;;5.03;;
83929;SDS011;73959;52.130;5.584;2024-01-25T00:05:11;21.63;;;4.47;;
83929;SDS011;73959;52.130;5.584;2024-01-25T00:07:49;28.70;;;6.35;;
83929;SDS011;73959;52.130;5.584;2024-01-25T00:10:18;34.50;;;5.55;;
83929;SDS011;73959;52.130;5.584;2024-01-25T00:12:44;32.78;;;6.90;;
83929;SDS011;73959;52.130;5.584;2024-01-25T00:15:10;26.70;;;4.57;;
83929;SDS011;73959;52.130;5.584;2024-01-25T00:17:36;33.38;;;6.25;;
83929;SDS011;73959;52.130;5.584;2024-01-25T00:20:03;31.25;;;4.60;;
83929;SDS011;73959;52.130;5.584;2024-01-25T00:22:29;26.38;;;5.28;;
83929;SDS011;73959;52.130;5.584;2024-01-25T00:24:55;37.88;;;6.90;;
83929;SDS011;73959;52.130;5.584;2024-01-25T00:27:21;27.30;;;5.15;;
83929;SDS011;73959;52.130;5.584;2024-01-25T00:29:47;33.10;;;5.18;;
83929;SDS011;73959;52.130;5.584;2024-01-25T00:32:13;28.88;;;5.45;;
83929;SDS011;73959;52.130;5.584;2024-01-25T00:34:39;38.55;;;6.07;;
83929;SDS011;73959;52.130;5.584;2024-01-25T00:37:05;29.80;;;4.72;;
83929;SDS011;73959;52.130;5.584;2024-01-25T00:39:31;33.10;;;5.65;;
83929;SDS011;73959;52.130;5.584;2024-01-25T00:41:58;36.40;;;5.60;;
83929;SDS011;73959;52.130;5.584;2024-01-25T00:44:27;28.25;;;6.22;;
83929;SDS011;73959;52.130;5.584;2024-01-25T00:46:54;33.13;;;5.82;;
83929;SDS011;73959;52.130;5.584;2024-01-25T00:49:20;31.17;;;4.97;;
83929;SDS011;73959;52.130;5.584;2024-01-25T00:51:47;30.55;;;5.10;;
83929;SDS011;73959;52.130;5.584;2024-01-25T00:54:13;26.10;;;5.50;;
83929;SDS011;73959;52.130;5.584;2024-01-25T00:56:40;36.80;;;5.30;;
83929;SDS011;73959;52.130;5.584;2024-01-25T00:59:06;28.67;;;5.82;;
83929;SDS011;73959;52.130;5.584;2024-01-25T01:01:32;30.45;;;6.00;;
83929;SDS011;73959;52.130;5.584;2024-01-25T01:03:58;33.30;;;5.53;;
83929;SDS011;73959;52.130;5.584;2024-01-25T01:06:25;37.15;;;5.70;;
83929;SDS011;73959;52.130;5.584;2024-01-25T01:08:51;30.48;;;5.93;;
83929;SDS011;73959;52.130;5.584;2024-01-25T01:11:17;37.63;;;6.13;;
83929;SDS011;73959;52.130;5.584;2024-01-25T01:13:44;28.25;;;4.75;;
83929;SDS011;73959;52.130;5.584;2024-01-25T01:16:10;35.50;;;5.38;;
83929;SDS011;73959;52.130;5.584;2024-01-25T01:18:36;33.00;;;5.30;;
83929;SDS011;73959;52.130;5.584;2024-01-25T01:21:03;27.77;;;5.28;;
83929;SDS011;73959;52.130;5.584;2024-01-25T01:23:29;35.10;;;6.03;;
83929;SDS011;73959;52.130;5.584;2024-01-25T01:25:55;34.70;;;5.95;;
83929;SDS011;73959;52.130;5.584;2024-01-25T01:28:21;31.50;;;5.80;;
83929;SDS011;73959;52.130;5.584;2024-01-25T01:30:47;33.78;;;6.35;;
83929;SDS011;73959;52.130;5.584;2024-01-25T01:33:13;31.58;;;5.45;;
83929;SDS011;73959;52.130;5.584;2024-01-25T01:35:39;33.67;;;6.10;;
83929;SDS011;73959;52.130;5.584;2024-01-25T01:38:05;37.92;;;6.50;;
83929;SDS011;73959;52.130;5.584;2024-01-25T01:40:31;29.15;;;6.00;;
83929;SDS011;73959;52.130;5.584;2024-01-25T01:43:00;23.42;;;4.95;;
83929;SDS011;73959;52.130;5.584;2024-01-25T01:45:26;38.47;;;6.13;;
83929;SDS011;73959;52.130;5.584;2024-01-25T01:47:52;29.45;;;5.07;;
83929;SDS011;73959;52.130;5.584;2024-01-25T01:50:18;29.30;;;5.85;;
83929;SDS011;73959;52.130;5.584;2024-01-25T01:52:44;32.08;;;5.63;;
83929;SDS011;73959;52.130;5.584;2024-01-25T01:55:11;32.47;;;5.60;;
83929;SDS011;73959;52.130;5.584;2024-01-25T01:57:37;31.13;;;5.30;;
83929;SDS011;73959;52.130;5.584;2024-01-25T02:00:03;27.15;;;4.72;;
83929;SDS011;73959;52.130;5.584;2024-01-25T02:02:33;23.55;;;4.68;;
83929;SDS011;73959;52.130;5.584;2024-01-25T02:04:59;38.25;;;5.90;;
83929;SDS011;73959;52.130;5.584;2024-01-25T02:07:25;33.33;;;5.35;;
83929;SDS011;73959;52.130;5.584;2024-01-25T02:09:51;34.97;;;6.15;;
83929;SDS011;73959;52.130;5.584;2024-01-25T02:12:17;34.05;;;5.78;;
83929;SDS011;73959;52.130;5.584;2024-01-25T02:14:44;43.30;;;6.35;;
83929;SDS011;73959;52.130;5.584;2024-01-25T02:17:10;30.80;;;5.35;;
83929;SDS011;73959;52.130;5.584;2024-01-25T02:19:36;34.65;;;5.60;;
83929;SDS011;73959;52.130;5.584;2024-01-25T02:22:02;31.15;;;6.13;;
83929;SDS011;73959;52.130;5.584;2024-01-25T02:24:30;31.60;;;6.25;;
83929;SDS011;73959;52.130;5.584;2024-01-25T02:26:56;37.20;;;6.78;;
83929;SDS011;73959;52.130;5.584;2024-01-25T02:29:22;32.35;;;6.05;;
83929;SDS011;73959;52.130;5.584;2024-01-25T02:31:48;39.50;;;6.72;;
83929;SDS011;73959;52.130;5.584;2024-01-25T02:34:14;41.55;;;6.20;;
83929;SDS011;73959;52.130;5.584;2024-01-25T02:36:40;31.30;;;6.18;;
83929;SDS011;73959;52.130;5.584;2024-01-25T02:39:05;27.48;;;6.07;;
83929;SDS011;73959;52.130;5.584;2024-01-25T02:41:31;31.02;;;5.85;;
83929;SDS011;73959;52.130;5.584;2024-01-25T02:43:59;31.58;;;6.30;;
83929;SDS011;73959;52.130;5.584;2024-01-25T02:46:25;33.75;;;5.95;;
83929;SDS011;73959;52.130;5.584;2024-01-25T02:48:51;32.65;;;5.78;;
83929;SDS011;73959;52.130;5.584;2024-01-25T02:51:17;32.60;;;5.95;;
83929;SDS011;73959;52.130;5.584;2024-01-25T02:53:43;40.13;;;5.40;;
83929;SDS011;73959;52.130;5.584;2024-01-25T02:56:09;31.23;;;5.95;;
83929;SDS011;73959;52.130;5.584;2024-01-25T02:58:35;37.55;;;6.97;;
83929;SDS011;73959;52.130;5.584;2024-01-25T03:01:01;31.63;;;6.80;;
83929;SDS011;73959;52.130;5.584;2024-01-25T03:03:27;29.35;;;5.00;;
83929;SDS011;73959;52.130;5.584;2024-01-25T03:05:53;35.35;;;5.68;;
83929;SDS011;73959;52.130;5.584;2024-01-25T03:08:19;35.00;;;6.90;;
83929;SDS011;73959;52.130;5.584;2024-01-25T03:10:46;32.08;;;5.55;;
83929;SDS011;73959;52.130;5.584;2024-01-25T03:13:15;37.85;;;6.30;;
83929;SDS011;73959;52.130;5.584;2024-01-25T03:15:42;41.55;;;6.35;;
83929;SDS011;73959;52.130;5.584;2024-01-25T03:18:08;33.97;;;5.72;;
83929;SDS011;73959;52.130;5.584;2024-01-25T03:20:34;34.67;;;6.13;;
83929;SDS011;73959;52.130;5.584;2024-01-25T03:23:00;41.03;;;6.57;;
83929;SDS011;73959;52.130;5.584;2024-01-25T03:25:27;31.55;;;5.97;;
83929;SDS011;73959;52.130;5.584;2024-01-25T03:27:53;32.70;;;6.38;;
83929;SDS011;73959;52.130;5.584;2024-01-25T03:30:19;27.77;;;5.13;;
83929;SDS011;73959;52.130;5.584;2024-01-25T03:32:46;30.73;;;6.10;;
83929;SDS011;73959;52.130;5.584;2024-01-25T03:35:11;38.60;;;6.07;;
83929;SDS011;73959;52.130;5.584;2024-01-25T03:37:37;35.05;;;6.35;;
83929;SDS011;73959;52.130;5.584;2024-01-25T03:40:04;35.40;;;6.25;;
83929;SDS011;73959;52.130;5.584;2024-01-25T03:42:30;35.97;;;5.97;;
83929;SDS011;73959;52.130;5.584;2024-01-25T03:44:56;26.88;;;4.95;;
83929;SDS011;73959;52.130;5.584;2024-01-25T03:47:22;31.35;;;5.68;;
83929;SDS011;73959;52.130;5.584;2024-01-25T03:49:48;31.33;;;6.00;;
83929;SDS011;73959;52.130;5.584;2024-01-25T03:52:14;39.20;;;6.32;;
83929;SDS011;73959;52.130;5.584;2024-01-25T03:54:40;34.40;;;6.40;;
83929;SDS011;73959;52.130;5.584;2024-01-25T03:57:06;43.53;;;7.15;;
83929;SDS011;73959;52.130;5.584;2024-01-25T03:59:32;40.60;;;6.60;;
83929;SDS011;73959;52.130;5.584;2024-01-25T04:01:58;31.40;;;5.20;;
83929;SDS011;73959;52.130;5.584;2024-01-25T04:04:24;40.35;;;6.57;;
83929;SDS011;73959;52.130;5.584;2024-01-25T04:06:50;34.72;;;5.97;;
83929;SDS011;73959;52.130;5.584;2024-01-25T04:09:15;39.78;;;5.38;;
83929;SDS011;73959;52.130;5.584;2024-01-25T04:11:41;41.53;;;6.18;;
83929;SDS011;73959;52.130;5.584;2024-01-25T04:14:07;42.30;;;7.15;;
83929;SDS011;73959;52.130;5.584;2024-01-25T04:16:33;38.92;;;7.22;;
83929;SDS011;73959;52.130;5.584;2024-01-25T04:18:59;46.25;;;6.95;;
83929;SDS011;73959;52.130;5.584;2024-01-25T04:21:26;36.42;;;6.93;;
83929;SDS011;73959;52.130;5.584;2024-01-25T04:23:52;38.90;;;7.05;;
83929;SDS011;73959;52.130;5.584;2024-01-25T04:26:18;41.15;;;6.57;;
83929;SDS011;73959;52.130;5.584;2024-01-25T04:28:44;38.38;;;6.50;;
83929;SDS011;73959;52.130;5.584;2024-01-25T04:31:10;28.63;;;5.50;;
83929;SDS011;73959;52.130;5.584;2024-01-25T04:33:37;31.73;;;4.93;;
83929;SDS011;73959;52.130;5.584;2024-01-25T04:36:04;34.65;;;6.93;;
83929;SDS011;73959;52.130;5.584;2024-01-25T04:38:30;47.67;;;7.85;;
83929;SDS011;73959;52.130;5.584;2024-01-25T04:40:56;41.40;;;6.38;;
83929;SDS011;73959;52.130;5.584;2024-01-25T04:43:22;28.75;;;5.65;;
83929;SDS011;73959;52.130;5.584;2024-01-25T04:45:48;48.55;;;7.15;;
83929;SDS011;73959;52.130;5.584;2024-01-25T04:48:14;41.97;;;7.10;;
83929;SDS011;73959;52.130;5.584;2024-01-25T04:50:40;38.17;;;6.82;;
83929;SDS011;73959;52.130;5.584;2024-01-25T04:53:06;39.47;;;7.13;;
83929;SDS011;73959;52.130;5.584;2024-01-25T04:55:32;43.88;;;7.60;;
83929;SDS011;73959;52.130;5.584;2024-01-25T04:57:58;31.42;;;5.70;;
83929;SDS011;73959;52.130;5.584;2024-01-25T05:00:24;43.63;;;6.93;;
83929;SDS011;73959;52.130;5.584;2024-01-25T05:02:50;40.22;;;7.25;;
83929;SDS011;73959;52.130;5.584;2024-01-25T05:05:16;27.35;;;6.82;;
83929;SDS011;73959;52.130;5.584;2024-01-25T05:07:42;37.25;;;6.40;;
83929;SDS011;73959;52.130;5.584;2024-01-25T05:10:08;38.67;;;6.82;;
83929;SDS011;73959;52.130;5.584;2024-01-25T05:12:34;44.30;;;6.55;;
83929;SDS011;73959;52.130;5.584;2024-01-25T05:15:00;24.40;;;5.63;;
83929;SDS011;73959;52.130;5.584;2024-01-25T05:17:26;23.60;;;5.05;;
83929;SDS011;73959;52.130;5.584;2024-01-25T05:19:52;43.40;;;7.28;;
83929;SDS011;73959;52.130;5.584;2024-01-25T05:22:18;31.73;;;7.07;;
83929;SDS011;73959;52.130;5.584;2024-01-25T05:24:46;35.00;;;7.45;;
83929;SDS011;73959;52.130;5.584;2024-01-25T05:27:12;40.88;;;7.55;;
83929;SDS011;73959;52.130;5.584;2024-01-25T05:29:38;39.90;;;7.50;;
83929;SDS011;73959;52.130;5.584;2024-01-25T05:32:04;36.33;;;6.90;;
83929;SDS011;73959;52.130;5.584;2024-01-25T05:34:30;34.25;;;7.35;;
83929;SDS011;73959;52.130;5.584;2024-01-25T05:36:56;43.38;;;8.23;;
83929;SDS011;73959;52.130;5.584;2024-01-25T05:39:22;39.95;;;6.95;;
83929;SDS011;73959;52.130;5.584;2024-01-25T05:41:48;42.38;;;8.27;;
83929;SDS011;73959;52.130;5.584;2024-01-25T05:44:14;38.13;;;7.25;;
83929;SDS011;73959;52.130;5.584;2024-01-25T05:46:40;36.95;;;7.13;;
83929;SDS011;73959;52.130;5.584;2024-01-25T05:49:06;34.08;;;6.75;;
83929;SDS011;73959;52.130;5.584;2024-01-25T05:51:32;40.28;;;7.00;;
83929;SDS011;73959;52.130;5.584;2024-01-25T05:53:58;47.42;;;7.47;;
83929;SDS011;73959;52.130;5.584;2024-01-25T05:56:24;38.45;;;6.93;;
83929;SDS011;73959;52.130;5.584;2024-01-25T05:58:50;36.05;;;7.13;;
83929;SDS011;73959;52.130;5.584;2024-01-25T06:01:16;33.42;;;5.80;;
83929;SDS011;73959;52.130;5.584;2024-01-25T06:03:42;37.63;;;6.80;;
83929;SDS011;73959;52.130;5.584;2024-01-25T06:06:08;35.70;;;7.75;;
83929;SDS011;73959;52.130;5.584;2024-01-25T06:08:34;44.22;;;7.82;;
83929;SDS011;73959;52.130;5.584;2024-01-25T06:11:00;33.25;;;7.53;;
83929;SDS011;73959;52.130;5.584;2024-01-25T06:13:26;37.47;;;7.35;;
83929;SDS011;73959;52.130;5.584;2024-01-25T06:15:52;48.60;;;9.75;;
83929;SDS011;73959;52.130;5.584;2024-01-25T06:18:18;34.38;;;6.65;;
83929;SDS011;73959;52.130;5.584;2024-01-25T06:20:44;40.90;;;7.55;;
83929;SDS011;73959;52.130;5.584;2024-01-25T06:23:10;31.55;;;7.18;;
83929;SDS011;73959;52.130;5.584;2024-01-25T06:25:36;35.90;;;7.07;;
83929;SDS011;73959;52.130;5.584;2024-01-25T06:28:02;41.78;;;6.88;;
83929;SDS011;73959;52.130;5.584;2024-01-25T06:30:29;26.23;;;6.05;;
83929;SDS011;73959;52.130;5.584;2024-01-25T06:32:55;32.70;;;6.72;;
83929;SDS011;73959;52.130;5.584;2024-01-25T06:35:21;35.08;;;6.10;;
83929;SDS011;73959;52.130;5.584;2024-01-25T06:37:47;34.28;;;7.90;;
83929;SDS011;73959;52.130;5.584;2024-01-25T06:40:13;35.25;;;7.00;;
83929;SDS011;73959;52.130;5.584;2024-01-25T06:42:39;31.67;;;6.78;;
83929;SDS011;73959;52.130;5.584;2024-01-25T06:45:05;35.92;;;8.00;;
83929;SDS011;73959;52.130;5.584;2024-01-25T06:47:31;39.60;;;7.03;;
83929;SDS011;73959;52.130;5.584;2024-01-25T06:49:57;36.75;;;6.50;;
83929;SDS011;73959;52.130;5.584;2024-01-25T06:52:23;38.13;;;7.35;;
83929;SDS011;73959;52.130;5.584;2024-01-25T06:54:49;37.83;;;7.13;;
83929;SDS011;73959;52.130;5.584;2024-01-25T06:57:15;33.05;;;6.70;;
83929;SDS011;73959;52.130;5.584;2024-01-25T06:59:41;36.88;;;6.50;;
83929;SDS011;73959;52.130;5.584;2024-01-25T07:02:07;34.50;;;6.40;;
83929;SDS011;73959;52.130;5.584;2024-01-25T07:04:33;36.10;;;7.15;;
83929;SDS011;73959;52.130;5.584;2024-01-25T07:06:59;38.38;;;6.93;;
83929;SDS011;73959;52.130;5.584;2024-01-25T07:09:25;30.45;;;6.47;;
83929;SDS011;73959;52.130;5.584;2024-01-25T07:11:51;36.65;;;6.47;;
83929;SDS011;73959;52.130;5.584;2024-01-25T07:14:17;32.95;;;6.75;;
83929;SDS011;73959;52.130;5.584;2024-01-25T07:16:43;40.17;;;7.30;;
83929;SDS011;73959;52.130;5.584;2024-01-25T07:19:09;43.83;;;6.90;;
83929;SDS011;73959;52.130;5.584;2024-01-25T07:21:35;36.88;;;7.25;;
83929;SDS011;73959;52.130;5.584;2024-01-25T07:24:02;37.13;;;7.13;;
83929;SDS011;73959;52.130;5.584;2024-01-25T07:26:31;42.72;;;11.65;;
83929;SDS011;73959;52.130;5.584;2024-01-25T07:28:57;40.40;;;8.13;;
83929;SDS011;73959;52.130;5.584;2024-01-25T07:31:25;44.40;;;7.75;;
83929;SDS011;73959;52.130;5.584;2024-01-25T07:33:51;41.58;;;8.57;;
83929;SDS011;73959;52.130;5.584;2024-01-25T07:36:17;37.58;;;8.60;;
83929;SDS011;73959;52.130;5.584;2024-01-25T07:38:43;31.90;;;6.82;;
83929;SDS011;73959;52.130;5.584;2024-01-25T07:41:12;35.83;;;7.60;;
83929;SDS011;73959;52.130;5.584;2024-01-25T07:43:38;38.90;;;8.30;;
83929;SDS011;73959;52.130;5.584;2024-01-25T07:46:03;34.17;;;7.68;;
83929;SDS011;73959;52.130;5.584;2024-01-25T07:48:29;43.05;;;8.63;;
83929;SDS011;73959;52.130;5.584;2024-01-25T07:50:56;38.08;;;8.27;;
83929;SDS011;73959;52.130;5.584;2024-01-25T07:53:22;44.80;;;9.88;;
83929;SDS011;73959;52.130;5.584;2024-01-25T07:55:48;33.90;;;8.18;;
83929;SDS011;73959;52.130;5.584;2024-01-25T07:58:14;43.78;;;8.77;;
83929;SDS011;73959;52.130;5.584;2024-01-25T08:00:41;47.80;;;9.75;;
83929;SDS011;73959;52.130;5.584;2024-01-25T08:03:10;37.00;;;9.50;;
83929;SDS011;73959;52.130;5.584;2024-01-25T08:05:36;44.58;;;9.25;;
83929;SDS011;73959;52.130;5.584;2024-01-25T08:08:02;47.58;;;11.02;;
83929;SDS011;73959;52.130;5.584;2024-01-25T08:10:28;52.72;;;9.80;;
83929;SDS011;73959;52.130;5.584;2024-01-25T08:12:54;43.75;;;8.80;;
83929;SDS011;73959;52.130;5.584;2024-01-25T08:15:20;38.85;;;10.18;;
83929;SDS011;73959;52.130;5.584;2024-01-25T08:17:46;44.80;;;9.65;;
83929;SDS011;73959;52.130;5.584;2024-01-25T08:20:12;42.83;;;9.93;;
83929;SDS011;73959;52.130;5.584;2024-01-25T08:22:40;41.17;;;9.02;;
83929;SDS011;73959;52.130;5.584;2024-01-25T08:25:06;33.03;;;8.73;;
83929;SDS011;73959;52.130;5.584;2024-01-25T08:27:32;34.35;;;9.10;;
83929;SDS011;73959;52.130;5.584;2024-01-25T08:29:58;40.35;;;9.35;;
83929;SDS011;73959;52.130;5.584;2024-01-25T08:32:24;43.20;;;9.57;;
83929;SDS011;73959;52.130;5.584;2024-01-25T08:34:50;41.95;;;8.43;;
83929;SDS011;73959;52.130;5.584;2024-01-25T08:37:16;39.45;;;8.93;;
83929;SDS011;73959;52.130;5.584;2024-01-25T08:39:42;44.53;;;8.57;;
83929;SDS011;73959;52.130;5.584;2024-01-25T08:42:10;46.72;;;9.57;;
83929;SDS011;73959;52.130;5.584;2024-01-25T08:44:38;39.38;;;8.48;;
83929;SDS011;73959;52.130;5.584;2024-01-25T08:47:04;35.40;;;8.15;;
83929;SDS011;73959;52.130;5.584;2024-01-25T08:49:30;46.85;;;8.40;;
83929;SDS011;73959;52.130;5.584;2024-01-25T08:51:56;39.65;;;8.82;;
83929;SDS011;73959;52.130;5.584;2024-01-25T08:54:22;38.67;;;8.70;;
83929;SDS011;73959;52.130;5.584;2024-01-25T08:56:48;37.22;;;8.30;;
83929;SDS011;73959;52.130;5.584;2024-01-25T08:59:14;47.97;;;10.35;;
83929;SDS011;73959;52.130;5.584;2024-01-25T09:01:40;35.60;;;8.95;;
83929;SDS011;73959;52.130;5.584;2024-01-25T09:04:06;34.08;;;9.20;;
83929;SDS011;73959;52.130;5.584;2024-01-25T09:06:32;40.60;;;9.13;;
83929;SDS011;73959;52.130;5.584;2024-01-25T09:08:58;25.92;;;6.90;;
83929;SDS011;73959;52.130;5.584;2024-01-25T09:11:24;49.13;;;9.60;;
83929;SDS011;73959;52.130;5.584;2024-01-25T09:13:50;42.38;;;9.10;;
83929;SDS011;73959;52.130;5.584;2024-01-25T09:16:16;36.80;;;7.47;;
83929;SDS011;73959;52.130;5.584;2024-01-25T09:18:42;32.33;;;8.20;;
83929;SDS011;73959;52.130;5.584;2024-01-25T09:21:08;50.33;;;8.57;;
83929;SDS011;73959;52.130;5.584;2024-01-25T09:23:34;45.85;;;10.57;;
83929;SDS011;73959;52.130;5.584;2024-01-25T09:26:00;31.85;;;7.28;;
83929;SDS011;73959;52.130;5.584;2024-01-25T09:28:26;39.08;;;10.90;;
83929;SDS011;73959;52.130;5.584;2024-01-25T09:30:52;31.08;;;8.93;;
83929;SDS011;73959;52.130;5.584;2024-01-25T09:33:18;42.88;;;8.40;;
83929;SDS011;73959;52.130;5.584;2024-01-25T09:35:44;38.35;;;9.15;;
83929;SDS011;73959;52.130;5.584;2024-01-25T09:38:12;40.58;;;9.65;;
83929;SDS011;73959;52.130;5.584;2024-01-25T09:40:38;34.88;;;8.70;;
83929;SDS011;73959;52.130;5.584;2024-01-25T09:43:04;29.52;;;7.65;;
83929;SDS011;73959;52.130;5.584;2024-01-25T09:45:30;36.13;;;8.20;;
83929;SDS011;73959;52.130;5.584;2024-01-25T09:47:56;40.42;;;8.60;;
83929;SDS011;73959;52.130;5.584;2024-01-25T09:50:23;43.72;;;10.00;;
83929;SDS011;73959;52.130;5.584;2024-01-25T09:52:55;35.88;;;8.57;;
83929;SDS011;73959;52.130;5.584;2024-01-25T09:55:24;29.27;;;8.50;;
83929;SDS011;73959;52.130;5.584;2024-01-25T09:57:52;36.40;;;8.77;;
83929;SDS011;73959;52.130;5.584;2024-01-25T10:00:19;45.42;;;9.48;;
83929;SDS011;73959;52.130;5.584;2024-01-25T10:02:47;36.60;;;10.00;;
83929;SDS011;73959;52.130;5.584;2024-01-25T10:05:14;30.92;;;8.43;;
83929;SDS011;73959;52.130;5.584;2024-01-25T10:07:41;30.42;;;8.23;;
83929;SDS011;73959;52.130;5.584;2024-01-25T10:10:07;43.85;;;10.57;;
83929;SDS011;73959;52.130;5.584;2024-01-25T10:12:34;36.30;;;8.88;;
83929;SDS011;73959;52.130;5.584;2024-01-25T10:15:00;39.00;;;10.02;;
83929;SDS011;73959;52.130;5.584;2024-01-25T10:17:27;44.38;;;9.48;;
83929;SDS011;73959;52.130;5.584;2024-01-25T10:19:53;38.85;;;8.40;;
83929;SDS011;73959;52.130;5.584;2024-01-25T10:22:19;35.50;;;8.20;;
83929;SDS011;73959;52.130;5.584;2024-01-25T10:24:45;41.13;;;9.25;;
83929;SDS011;73959;52.130;5.584;2024-01-25T10:27:11;42.28;;;8.63;;
83929;SDS011;73959;52.130;5.584;2024-01-25T10:29:37;36.08;;;8.02;;
83929;SDS011;73959;52.130;5.584;2024-01-25T10:32:03;46.38;;;9.13;;
83929;SDS011;73959;52.130;5.584;2024-01-25T10:34:29;41.05;;;9.55;;
83929;SDS011;73959;52.130;5.584;2024-01-25T10:36:56;39.22;;;9.80;;
83929;SDS011;73959;52.130;5.584;2024-01-25T10:39:22;38.40;;;9.18;;
83929;SDS011;73959;52.130;5.584;2024-01-25T10:41:50;41.90;;;8.93;;
83929;SDS011;73959;52.130;5.584;2024-01-25T10:44:16;40.65;;;9.38;;
83929;SDS011;73959;52.130;5.584;2024-01-25T10:46:48;40.63;;;10.40;;
83929;SDS011;73959;52.130;5.584;2024-01-25T10:49:15;43.60;;;9.35;;
83929;SDS011;73959;52.130;5.584;2024-01-25T10:51:41;41.17;;;9.48;;
83929;SDS011;73959;52.130;5.584;2024-01-25T10:54:07;38.75;;;10.02;;
83929;SDS011;73959;52.130;5.584;2024-01-25T10:56:37;43.35;;;9.93;;
83929;SDS011;73959;52.130;5.584;2024-01-25T10:59:03;31.73;;;9.10;;
83929;SDS011;73959;52.130;5.584;2024-01-25T11:01:31;39.67;;;9.35;;
83929;SDS011;73959;52.130;5.584;2024-01-25T11:03:59;48.08;;;9.95;;
83929;SDS011;73959;52.130;5.584;2024-01-25T11:06:26;43.45;;;9.10;;
83929;SDS011;73959;52.130;5.584;2024-01-25T11:08:54;29.75;;;7.50;;
83929;SDS011;73959;52.130;5.584;2024-01-25T11:11:29;34.10;;;8.02;;
83929;SDS011;73959;52.130;5.584;2024-01-25T11:13:56;42.00;;;9.60;;
83929;SDS011;73959;52.130;5.584;2024-01-25T11:16:29;37.72;;;8.90;;
83929;SDS011;73959;52.130;5.584;2024-01-25T11:18:57;41.42;;;9.20;;
83929;SDS011;73959;52.130;5.584;2024-01-25T11:21:38;42.85;;;8.88;;
83929;SDS011;73959;52.130;5.584;2024-01-25T11:24:04;33.03;;;8.98;;
83929;SDS011;73959;52.130;5.584;2024-01-25T11:26:33;39.20;;;9.95;;
83929;SDS011;73959;52.130;5.584;2024-01-25T11:28:59;41.20;;;10.27;;
83929;SDS011;73959;52.130;5.584;2024-01-25T11:31:29;41.22;;;9.45;;
83929;SDS011;73959;52.130;5.584;2024-01-25T11:33:58;35.88;;;9.25;;
83929;SDS011;73959;52.130;5.584;2024-01-25T11:36:27;37.80;;;8.65;;
83929;SDS011;73959;52.130;5.584;2024-01-25T11:38:53;41.92;;;8.43;;
83929;SDS011;73959;52.130;5.584;2024-01-25T11:41:19;38.08;;;8.95;;
83929;SDS011;73959;52.130;5.584;2024-01-25T11:43:49;35.22;;;8.23;;
83929;SDS011;73959;52.130;5.584;2024-01-25T11:46:15;37.60;;;8.73;;
83929;SDS011;73959;52.130;5.584;2024-01-25T11:48:42;31.63;;;7.45;;
83929;SDS011;73959;52.130;5.584;2024-01-25T11:51:11;32.83;;;7.60;;
83929;SDS011;73959;52.130;5.584;2024-01-25T11:53:37;42.75;;;8.57;;
83929;SDS011;73959;52.130;5.584;2024-01-25T11:56:04;37.70;;;7.72;;
83929;SDS011;73959;52.130;5.584;2024-01-25T11:58:32;30.25;;;8.25;;
83929;SDS011;73959;52.130;5.584;2024-01-25T12:00:58;40.22;;;8.77;;
83929;SDS011;73959;52.130;5.584;2024-01-25T12:03:24;37.30;;;9.23;;
83929;SDS011;73959;52.130;5.584;2024-01-25T12:05:51;34.30;;;8.23;;
83929;SDS011;73959;52.130;5.584;2024-01-25T12:08:17;41.47;;;9.00;;
83929;SDS011;73959;52.130;5.584;2024-01-25T12:10:43;33.38;;;9.00;;
83929;SDS011;73959;52.130;5.584;2024-01-25T12:13:09;35.33;;;8.75;;
83929;SDS011;73959;52.130;5.584;2024-01-25T12:15:35;36.05;;;8.93;;
83929;SDS011;73959;52.130;5.584;2024-01-25T12:18:02;33.38;;;8.77;;
83929;SDS011;73959;52.130;5.584;2024-01-25T12:20:28;30.67;;;7.45;;
83929;SDS011;73959;52.130;5.584;2024-01-25T12:22:54;33.55;;;8.20;;
83929;SDS011;73959;52.130;5.584;2024-01-25T12:25:20;31.77;;;7.78;;
83929;SDS011;73959;52.130;5.584;2024-01-25T12:27:47;45.67;;;9.13;;
83929;SDS011;73959;52.130;5.584;2024-01-25T12:30:15;36.92;;;9.32;;
83929;SDS011;73959;52.130;5.584;2024-01-25T12:32:41;35.58;;;9.40;;
83929;SDS011;73959;52.130;5.584;2024-01-25T12:35:07;44.22;;;10.40;;
83929;SDS011;73959;52.130;5.584;2024-01-25T12:37:33;47.10;;;10.70;;
83929;SDS011;73959;52.130;5.584;2024-01-25T12:39:59;44.42;;;10.32;;
83929;SDS011;73959;52.130;5.584;2024-01-25T12:42:26;33.75;;;10.23;;
83929;SDS011;73959;52.130;5.584;2024-01-25T12:44:52;43.28;;;10.32;;
83929;SDS011;73959;52.130;5.584;2024-01-25T12:47:21;34.72;;;9.43;;
83929;SDS011;73959;52.130;5.584;2024-01-25T12:49:47;37.53;;;9.98;;
83929;SDS011;73959;52.130;5.584;2024-01-25T12:52:14;47.85;;;10.60;;
83929;SDS011;73959;52.130;5.584;2024-01-25T12:54:41;42.80;;;11.23;;
83929;SDS011;73959;52.130;5.584;2024-01-25T12:57:07;34.15;;;10.15;;
83929;SDS011;73959;52.130;5.584;2024-01-25T12:59:34;42.17;;;10.75;;
83929;SDS011;73959;52.130;5.584;2024-01-25T13:02:00;34.88;;;9.73;;
83929;SDS011;73959;52.130;5.584;2024-01-25T13:04:26;39.08;;;9.95;;
83929;SDS011;73959;52.130;5.584;2024-01-25T13:06:53;40.10;;;10.90;;
83929;SDS011;73959;52.130;5.584;2024-01-25T13:09:20;41.35;;;10.30;;
83929;SDS011;73959;52.130;5.584;2024-01-25T13:11:46;28.27;;;8.80;;
83929;SDS011;73959;52.130;5.584;2024-01-25T13:14:12;37.95;;;10.05;;
83929;SDS011;73959;52.130;5.584;2024-01-25T13:16:38;38.65;;;9.82;;
83929;SDS011;73959;52.130;5.584;2024-01-25T13:19:04;40.70;;;10.88;;
83929;SDS011;73959;52.130;5.584;2024-01-25T13:21:31;39.88;;;11.55;;
83929;SDS011;73959;52.130;5.584;2024-01-25T13:23:58;37.45;;;9.68;;
83929;SDS011;73959;52.130;5.584;2024-01-25T13:26:25;40.83;;;10.52;;
83929;SDS011;73959;52.130;5.584;2024-01-25T13:28:51;43.22;;;11.35;;
83929;SDS011;73959;52.130;5.584;2024-01-25T13:31:17;40.03;;;10.65;;
83929;SDS011;73959;52.130;5.584;2024-01-25T13:33:43;46.45;;;11.98;;
83929;SDS011;73959;52.130;5.584;2024-01-25T13:36:10;39.40;;;11.85;;
83929;SDS011;73959;52.130;5.584;2024-01-25T13:38:38;42.20;;;11.50;;
83929;SDS011;73959;52.130;5.584;2024-01-25T13:41:04;40.42;;;11.45;;
83929;SDS011;73959;52.130;5.584;2024-01-25T13:43:30;44.33;;;12.35;;
83929;SDS011;73959;52.130;5.584;2024-01-25T13:45:56;44.03;;;12.02;;
83929;SDS011;73959;52.130;5.584;2024-01-25T13:48:22;50.38;;;13.02;;
83929;SDS011;73959;52.130;5.584;2024-01-25T13:50:48;44.85;;;13.65;;
83929;SDS011;73959;52.130;5.584;2024-01-25T13:53:14;45.10;;;13.98;;
83929;SDS011;73959;52.130;5.584;2024-01-25T13:55:40;42.17;;;13.88;;
83929;SDS011;73959;52.130;5.584;2024-01-25T13:58:06;45.80;;;13.07;;
83929;SDS011;73959;52.130;5.584;2024-01-25T14:00:32;50.45;;;13.82;;
83929;SDS011;73959;52.130;5.584;2024-01-25T14:02:58;44.78;;;13.75;;
83929;SDS011;73959;52.130;5.584;2024-01-25T14:05:24;43.38;;;12.82;;
83929;SDS011;73959;52.130;5.584;2024-01-25T14:07:50;39.65;;;12.57;;
83929;SDS011;73959;52.130;5.584;2024-01-25T14:10:16;42.55;;;13.43;;
83929;SDS011;73959;52.130;5.584;2024-01-25T14:12:42;41.42;;;13.80;;
83929;SDS011;73959;52.130;5.584;2024-01-25T14:15:09;40.22;;;13.50;;
83929;SDS011;73959;52.130;5.584;2024-01-25T14:17:36;41.97;;;14.00;;
83929;SDS011;73959;52.130;5.584;2024-01-25T14:20:02;43.33;;;14.30;;
83929;SDS011;73959;52.130;5.584;2024-01-25T14:22:29;48.10;;;14.75;;
83929;SDS011;73959;52.130;5.584;2024-01-25T14:24:55;51.22;;;13.73;;
83929;SDS011;73959;52.130;5.584;2024-01-25T14:27:21;48.30;;;14.68;;